sensor_id;sensor_type;location;lat;lon;timestamp;P1;durP1;ratioP1;P2;durP2;ratioP2
36575;SDS011;45700;50.930;5.168;2023-03-01T00:02:03;10.23;;;4.93;;
36575;SDS011;45700;50.930;5.168;2023-03-01T00:06:04;13.52;;;4.30;;
36575;SDS011;45700;50.930;5.168;2023-03-01T00:10:06;9.00;;;4.40;;
36575;SDS011;45700;50.930;5.168;2023-03-01T00:14:07;10.65;;;4.45;;
36575;SDS011;45700;50.930;5.168;2023-03-01T00:18:08;14.65;;;4.88;;
36575;SDS011;45700;50.930;5.168;2023-03-01T00:22:09;12.30;;;4.88;;
36575;SDS011;45700;50.930;5.168;2023-03-01T00:26:11;15.65;;;5.40;;
36575;SDS011;45700;50.930;5.168;2023-03-01T00:30:13;11.23;;;4.63;;
36575;SDS011;45700;50.930;5.168;2023-03-01T00:34:14;9.35;;;4.97;;
36575;SDS011;45700;50.930;5.168;2023-03-01T00:38:15;7.65;;;4.32;;
36575;SDS011;45700;50.930;5.168;2023-03-01T00:42:16;10.68;;;4.22;;
36575;SDS011;45700;50.930;5.168;2023-03-01T00:46:19;9.70;;;5.05;;
36575;SDS011;45700;50.930;5.168;2023-03-01T00:50:20;11.10;;;4.72;;
36575;SDS011;45700;50.930;5.168;2023-03-01T00:54:21;10.27;;;4.65;;
36575;SDS011;45700;50.930;5.168;2023-03-01T00:58:22;10.88;;;4.60;;
36575;SDS011;45700;50.930;5.168;2023-03-01T01:02:23;8.35;;;4.72;;
36575;SDS011;45700;50.930;5.168;2023-03-01T01:06:26;11.65;;;5.25;;
36575;SDS011;45700;50.930;5.168;2023-03-01T01:10:28;9.73;;;4.88;;
36575;SDS011;45700;50.930;5.168;2023-03-01T01:14:29;14.73;;;5.70;;
36575;SDS011;45700;50.930;5.168;2023-03-01T01:18:30;9.45;;;4.88;;
36575;SDS011;45700;50.930;5.168;2023-03-01T01:22:31;12.52;;;4.80;;
36575;SDS011;45700;50.930;5.168;2023-03-01T01:26:33;11.15;;;4.57;;
36575;SDS011;45700;50.930;5.168;2023-03-01T01:30:34;12.50;;;5.15;;
36575;SDS011;45700;50.930;5.168;2023-03-01T01:34:35;8.10;;;4.82;;
36575;SDS011;45700;50.930;5.168;2023-03-01T01:38:37;13.48;;;5.18;;
36575;SDS011;45700;50.930;5.168;2023-03-01T01:42:38;16.13;;;6.07;;
36575;SDS011;45700;50.930;5.168;2023-03-01T01:50:56;12.15;;;5.70;;
36575;SDS011;45700;50.930;5.168;2023-03-01T01:55:00;9.57;;;5.13;;
36575;SDS011;45700;50.930;5.168;2023-03-01T01:59:02;14.85;;;5.53;;
36575;SDS011;45700;50.930;5.168;2023-03-01T02:03:10;15.18;;;5.53;;
36575;SDS011;45700;50.930;5.168;2023-03-01T02:07:16;10.30;;;5.05;;
36575;SDS011;45700;50.930;5.168;2023-03-01T02:11:18;10.55;;;5.55;;
36575;SDS011;45700;50.930;5.168;2023-03-01T02:15:19;10.50;;;5.72;;
36575;SDS011;45700;50.930;5.168;2023-03-01T02:19:31;10.45;;;5.50;;
36575;SDS011;45700;50.930;5.168;2023-03-01T02:23:40;11.35;;;5.90;;
36575;SDS011;45700;50.930;5.168;2023-03-01T02:27:45;12.80;;;5.78;;
36575;SDS011;45700;50.930;5.168;2023-03-01T02:31:48;16.92;;;5.65;;
36575;SDS011;45700;50.930;5.168;2023-03-01T02:35:49;10.43;;;5.70;;
36575;SDS011;45700;50.930;5.168;2023-03-01T02:40:02;11.52;;;5.95;;
36575;SDS011;45700;50.930;5.168;2023-03-01T02:44:04;11.35;;;5.43;;
36575;SDS011;45700;50.930;5.168;2023-03-01T02:48:06;13.15;;;5.55;;
36575;SDS011;45700;50.930;5.168;2023-03-01T03:00:28;14.32;;;5.90;;
36575;SDS011;45700;50.930;5.168;2023-03-01T03:04:33;13.02;;;5.25;;
36575;SDS011;45700;50.930;5.168;2023-03-01T03:08:34;14.75;;;5.82;;
36575;SDS011;45700;50.930;5.168;2023-03-01T03:12:35;14.23;;;5.70;;
36575;SDS011;45700;50.930;5.168;2023-03-01T03:16:36;12.27;;;5.80;;
36575;SDS011;45700;50.930;5.168;2023-03-01T03:20:38;12.38;;;5.68;;
36575;SDS011;45700;50.930;5.168;2023-03-01T03:24:40;14.90;;;5.95;;
36575;SDS011;45700;50.930;5.168;2023-03-01T03:28:41;12.48;;;5.90;;
36575;SDS011;45700;50.930;5.168;2023-03-01T03:32:42;16.90;;;5.82;;
36575;SDS011;45700;50.930;5.168;2023-03-01T03:36:55;10.48;;;5.32;;
36575;SDS011;45700;50.930;5.168;2023-03-01T03:41:03;18.90;;;6.65;;
36575;SDS011;45700;50.930;5.168;2023-03-01T03:45:04;12.23;;;5.63;;
36575;SDS011;45700;50.930;5.168;2023-03-01T03:49:06;13.80;;;5.47;;
36575;SDS011;45700;50.930;5.168;2023-03-01T03:53:08;15.18;;;6.47;;
36575;SDS011;45700;50.930;5.168;2023-03-01T03:57:09;18.92;;;6.00;;
36575;SDS011;45700;50.930;5.168;2023-03-01T04:01:10;15.43;;;6.68;;
36575;SDS011;45700;50.930;5.168;2023-03-01T04:05:12;12.00;;;5.53;;
36575;SDS011;45700;50.930;5.168;2023-03-01T04:09:14;13.93;;;5.75;;
36575;SDS011;45700;50.930;5.168;2023-03-01T04:13:18;14.35;;;6.47;;
36575;SDS011;45700;50.930;5.168;2023-03-01T04:17:20;13.52;;;5.85;;
36575;SDS011;45700;50.930;5.168;2023-03-01T04:21:21;12.48;;;5.85;;
36575;SDS011;45700;50.930;5.168;2023-03-01T04:25:22;13.70;;;6.53;;
36575;SDS011;45700;50.930;5.168;2023-03-01T04:29:23;11.25;;;6.47;;
36575;SDS011;45700;50.930;5.168;2023-03-01T04:33:24;13.43;;;5.75;;
36575;SDS011;45700;50.930;5.168;2023-03-01T04:37:25;16.40;;;6.90;;
36575;SDS011;45700;50.930;5.168;2023-03-01T04:41:27;16.52;;;6.10;;
36575;SDS011;45700;50.930;5.168;2023-03-01T04:45:28;11.63;;;5.93;;
36575;SDS011;45700;50.930;5.168;2023-03-01T04:49:29;13.13;;;6.22;;
36575;SDS011;45700;50.930;5.168;2023-03-01T04:53:30;11.80;;;5.68;;
36575;SDS011;45700;50.930;5.168;2023-03-01T04:57:31;12.98;;;5.95;;
36575;SDS011;45700;50.930;5.168;2023-03-01T05:01:32;12.00;;;6.20;;
36575;SDS011;45700;50.930;5.168;2023-03-01T05:05:34;14.27;;;6.30;;
36575;SDS011;45700;50.930;5.168;2023-03-01T05:09:36;16.02;;;6.13;;
36575;SDS011;45700;50.930;5.168;2023-03-01T05:13:37;16.90;;;6.07;;
36575;SDS011;45700;50.930;5.168;2023-03-01T05:17:38;13.32;;;6.63;;
36575;SDS011;45700;50.930;5.168;2023-03-01T05:21:39;15.82;;;6.13;;
36575;SDS011;45700;50.930;5.168;2023-03-01T05:26:01;17.10;;;6.20;;
36575;SDS011;45700;50.930;5.168;2023-03-01T05:30:03;15.52;;;6.65;;
36575;SDS011;45700;50.930;5.168;2023-03-01T05:34:13;15.30;;;5.97;;
36575;SDS011;45700;50.930;5.168;2023-03-01T05:38:14;18.08;;;6.18;;
36575;SDS011;45700;50.930;5.168;2023-03-01T05:42:15;14.77;;;6.32;;
36575;SDS011;45700;50.930;5.168;2023-03-01T05:46:16;14.00;;;6.18;;
36575;SDS011;45700;50.930;5.168;2023-03-01T05:50:18;18.75;;;7.32;;
36575;SDS011;45700;50.930;5.168;2023-03-01T05:54:20;18.65;;;6.85;;
36575;SDS011;45700;50.930;5.168;2023-03-01T05:58:21;19.17;;;7.05;;
36575;SDS011;45700;50.930;5.168;2023-03-01T06:02:22;11.40;;;5.85;;
36575;SDS011;45700;50.930;5.168;2023-03-01T06:06:24;17.50;;;6.85;;
36575;SDS011;45700;50.930;5.168;2023-03-01T06:10:25;17.40;;;6.75;;
36575;SDS011;45700;50.930;5.168;2023-03-01T06:14:26;13.73;;;6.35;;
36575;SDS011;45700;50.930;5.168;2023-03-01T06:18:27;21.08;;;7.20;;
36575;SDS011;45700;50.930;5.168;2023-03-01T06:22:28;26.23;;;7.03;;
36575;SDS011;45700;50.930;5.168;2023-03-01T06:26:29;16.02;;;6.80;;
36575;SDS011;45700;50.930;5.168;2023-03-01T06:30:30;15.43;;;6.65;;
36575;SDS011;45700;50.930;5.168;2023-03-01T06:34:31;31.85;;;10.18;;
36575;SDS011;45700;50.930;5.168;2023-03-01T06:38:32;27.00;;;9.90;;
36575;SDS011;45700;50.930;5.168;2023-03-01T06:42:36;21.10;;;8.63;;
36575;SDS011;45700;50.930;5.168;2023-03-01T06:46:38;17.77;;;7.25;;
36575;SDS011;45700;50.930;5.168;2023-03-01T06:50:39;21.00;;;9.10;;
36575;SDS011;45700;50.930;5.168;2023-03-01T06:54:40;19.40;;;8.27;;
36575;SDS011;45700;50.930;5.168;2023-03-01T06:58:41;15.90;;;7.20;;
36575;SDS011;45700;50.930;5.168;2023-03-01T07:02:42;20.98;;;7.50;;
36575;SDS011;45700;50.930;5.168;2023-03-01T07:06:43;19.73;;;7.70;;
36575;SDS011;45700;50.930;5.168;2023-03-01T07:10:44;19.90;;;6.55;;
36575;SDS011;45700;50.930;5.168;2023-03-01T07:14:45;17.42;;;6.68;;
36575;SDS011;45700;50.930;5.168;2023-03-01T07:18:46;13.60;;;6.65;;
36575;SDS011;45700;50.930;5.168;2023-03-01T07:22:47;11.65;;;5.65;;
36575;SDS011;45700;50.930;5.168;2023-03-01T07:26:49;14.18;;;6.35;;
36575;SDS011;45700;50.930;5.168;2023-03-01T07:30:50;14.52;;;6.22;;
36575;SDS011;45700;50.930;5.168;2023-03-01T07:34:51;15.82;;;6.85;;
36575;SDS011;45700;50.930;5.168;2023-03-01T07:38:52;20.38;;;6.78;;
36575;SDS011;45700;50.930;5.168;2023-03-01T07:42:58;19.42;;;7.50;;
36575;SDS011;45700;50.930;5.168;2023-03-01T07:46:59;20.38;;;7.78;;
36575;SDS011;45700;50.930;5.168;2023-03-01T07:51:00;19.88;;;7.65;;
36575;SDS011;45700;50.930;5.168;2023-03-01T07:55:01;17.88;;;6.60;;
36575;SDS011;45700;50.930;5.168;2023-03-01T07:59:02;15.30;;;6.85;;
36575;SDS011;45700;50.930;5.168;2023-03-01T08:03:03;14.43;;;7.10;;
36575;SDS011;45700;50.930;5.168;2023-03-01T08:07:05;17.05;;;8.13;;
36575;SDS011;45700;50.930;5.168;2023-03-01T08:11:06;17.27;;;7.75;;
36575;SDS011;45700;50.930;5.168;2023-03-01T08:15:08;19.27;;;8.00;;
36575;SDS011;45700;50.930;5.168;2023-03-01T08:19:11;17.27;;;7.90;;
36575;SDS011;45700;50.930;5.168;2023-03-01T08:23:12;14.70;;;7.10;;
36575;SDS011;45700;50.930;5.168;2023-03-01T08:27:14;16.98;;;7.57;;
36575;SDS011;45700;50.930;5.168;2023-03-01T08:31:17;14.48;;;6.68;;
36575;SDS011;45700;50.930;5.168;2023-03-01T08:35:19;12.60;;;6.30;;
36575;SDS011;45700;50.930;5.168;2023-03-01T08:39:20;16.27;;;7.40;;
36575;SDS011;45700;50.930;5.168;2023-03-01T08:43:21;16.60;;;7.22;;
36575;SDS011;45700;50.930;5.168;2023-03-01T08:47:24;17.13;;;6.60;;
36575;SDS011;45700;50.930;5.168;2023-03-01T08:51:26;14.35;;;7.03;;
36575;SDS011;45700;50.930;5.168;2023-03-01T08:55:29;20.80;;;7.15;;
36575;SDS011;45700;50.930;5.168;2023-03-01T08:59:30;14.90;;;6.90;;
36575;SDS011;45700;50.930;5.168;2023-03-01T09:03:35;15.30;;;6.80;;
36575;SDS011;45700;50.930;5.168;2023-03-01T09:07:37;20.33;;;7.03;;
36575;SDS011;45700;50.930;5.168;2023-03-01T09:11:37;15.80;;;7.10;;
36575;SDS011;45700;50.930;5.168;2023-03-01T09:15:38;20.15;;;6.45;;
36575;SDS011;45700;50.930;5.168;2023-03-01T09:19:39;19.13;;;7.38;;
36575;SDS011;45700;50.930;5.168;2023-03-01T09:23:41;12.75;;;6.25;;
36575;SDS011;45700;50.930;5.168;2023-03-01T09:27:43;16.98;;;7.15;;
36575;SDS011;45700;50.930;5.168;2023-03-01T09:31:44;19.50;;;7.28;;
36575;SDS011;45700;50.930;5.168;2023-03-01T09:35:45;14.32;;;6.43;;
36575;SDS011;45700;50.930;5.168;2023-03-01T09:39:47;17.42;;;6.53;;
36575;SDS011;45700;50.930;5.168;2023-03-01T09:43:52;13.98;;;7.07;;
36575;SDS011;45700;50.930;5.168;2023-03-01T09:47:54;14.48;;;7.05;;
36575;SDS011;45700;50.930;5.168;2023-03-01T09:52:38;14.18;;;6.70;;
36575;SDS011;45700;50.930;5.168;2023-03-01T09:56:22;17.25;;;6.47;;
36575;SDS011;45700;50.930;5.168;2023-03-01T10:00:44;17.23;;;6.57;;
36575;SDS011;45700;50.930;5.168;2023-03-01T10:04:48;14.10;;;6.35;;
36575;SDS011;45700;50.930;5.168;2023-03-01T10:08:56;17.38;;;7.40;;
36575;SDS011;45700;50.930;5.168;2023-03-01T10:13:00;14.45;;;5.47;;
36575;SDS011;45700;50.930;5.168;2023-03-01T10:17:04;14.20;;;6.28;;
36575;SDS011;45700;50.930;5.168;2023-03-01T10:21:13;14.88;;;6.60;;
36575;SDS011;45700;50.930;5.168;2023-03-01T10:25:17;16.98;;;6.35;;
36575;SDS011;45700;50.930;5.168;2023-03-01T10:29:27;15.25;;;6.97;;
36575;SDS011;45700;50.930;5.168;2023-03-01T10:33:35;18.23;;;6.55;;
36575;SDS011;45700;50.930;5.168;2023-03-01T10:37:46;17.77;;;6.25;;
36575;SDS011;45700;50.930;5.168;2023-03-01T10:41:58;16.02;;;7.20;;
36575;SDS011;45700;50.930;5.168;2023-03-01T10:45:59;17.10;;;7.22;;
36575;SDS011;45700;50.930;5.168;2023-03-01T10:50:04;15.68;;;6.75;;
36575;SDS011;45700;50.930;5.168;2023-03-01T10:54:06;15.70;;;6.53;;
36575;SDS011;45700;50.930;5.168;2023-03-01T10:58:17;17.63;;;7.70;;
36575;SDS011;45700;50.930;5.168;2023-03-01T11:02:23;12.05;;;6.50;;
36575;SDS011;45700;50.930;5.168;2023-03-01T11:06:26;21.35;;;7.78;;
36575;SDS011;45700;50.930;5.168;2023-03-01T11:10:31;22.90;;;7.55;;
36575;SDS011;45700;50.930;5.168;2023-03-01T11:14:35;22.30;;;7.80;;
36575;SDS011;45700;50.930;5.168;2023-03-01T11:18:37;13.20;;;6.30;;
36575;SDS011;45700;50.930;5.168;2023-03-01T11:22:40;15.30;;;6.75;;
36575;SDS011;45700;50.930;5.168;2023-03-01T11:26:55;12.98;;;6.50;;
36575;SDS011;45700;50.930;5.168;2023-03-01T11:35:00;22.27;;;9.40;;
36575;SDS011;45700;50.930;5.168;2023-03-01T11:51:25;16.15;;;7.57;;
36575;SDS011;45700;50.930;5.168;2023-03-01T12:12:18;21.65;;;8.90;;
36575;SDS011;45700;50.930;5.168;2023-03-01T12:20:51;24.45;;;8.60;;
36575;SDS011;45700;50.930;5.168;2023-03-01T12:25:03;17.63;;;8.20;;
36575;SDS011;45700;50.930;5.168;2023-03-01T12:37:50;12.27;;;5.78;;
36575;SDS011;45700;50.930;5.168;2023-03-01T12:50:12;17.92;;;6.63;;
36575;SDS011;45700;50.930;5.168;2023-03-01T12:54:15;15.82;;;6.72;;
36575;SDS011;45700;50.930;5.168;2023-03-01T13:02:30;16.70;;;6.43;;
36575;SDS011;45700;50.930;5.168;2023-03-01T13:10:54;18.55;;;5.88;;
36575;SDS011;45700;50.930;5.168;2023-03-01T13:14:57;15.25;;;6.22;;
36575;SDS011;45700;50.930;5.168;2023-03-01T13:23:12;12.52;;;5.03;;
36575;SDS011;45700;50.930;5.168;2023-03-01T13:31:55;16.23;;;5.45;;
36575;SDS011;45700;50.930;5.168;2023-03-01T13:35:42;12.80;;;5.95;;
36575;SDS011;45700;50.930;5.168;2023-03-01T13:39:44;13.73;;;6.03;;
36575;SDS011;45700;50.930;5.168;2023-03-01T13:43:45;17.67;;;5.53;;
36575;SDS011;45700;50.930;5.168;2023-03-01T13:48:08;14.68;;;6.25;;
36575;SDS011;45700;50.930;5.168;2023-03-01T13:56:29;14.60;;;5.20;;
36575;SDS011;45700;50.930;5.168;2023-03-01T14:00:37;10.85;;;4.97;;
36575;SDS011;45700;50.930;5.168;2023-03-01T14:04:38;12.88;;;6.22;;
36575;SDS011;45700;50.930;5.168;2023-03-01T14:08:40;13.38;;;5.38;;
36575;SDS011;45700;50.930;5.168;2023-03-01T14:12:47;12.30;;;5.82;;
36575;SDS011;45700;50.930;5.168;2023-03-01T14:20:57;15.55;;;5.75;;
36575;SDS011;45700;50.930;5.168;2023-03-01T14:24:59;12.13;;;5.15;;
36575;SDS011;45700;50.930;5.168;2023-03-01T14:29:00;12.52;;;5.10;;
36575;SDS011;45700;50.930;5.168;2023-03-01T14:33:03;11.43;;;5.78;;
36575;SDS011;45700;50.930;5.168;2023-03-01T14:37:19;14.77;;;6.00;;
36575;SDS011;45700;50.930;5.168;2023-03-01T14:41:24;15.98;;;6.20;;
36575;SDS011;45700;50.930;5.168;2023-03-01T14:45:27;14.00;;;5.47;;
36575;SDS011;45700;50.930;5.168;2023-03-01T14:49:29;13.60;;;6.20;;
36575;SDS011;45700;50.930;5.168;2023-03-01T14:53:31;12.05;;;5.30;;
36575;SDS011;45700;50.930;5.168;2023-03-01T14:57:32;12.48;;;4.78;;
36575;SDS011;45700;50.930;5.168;2023-03-01T15:01:33;13.98;;;5.45;;
36575;SDS011;45700;50.930;5.168;2023-03-01T15:05:34;14.65;;;5.32;;
36575;SDS011;45700;50.930;5.168;2023-03-01T15:09:35;12.35;;;5.28;;
36575;SDS011;45700;50.930;5.168;2023-03-01T15:13:37;13.15;;;5.43;;
36575;SDS011;45700;50.930;5.168;2023-03-01T15:17:38;10.27;;;4.72;;
36575;SDS011;45700;50.930;5.168;2023-03-01T15:21:40;7.30;;;4.45;;
36575;SDS011;45700;50.930;5.168;2023-03-01T15:25:44;14.10;;;5.35;;
36575;SDS011;45700;50.930;5.168;2023-03-01T15:33:52;10.82;;;4.97;;
36575;SDS011;45700;50.930;5.168;2023-03-01T15:37:53;11.70;;;5.07;;
36575;SDS011;45700;50.930;5.168;2023-03-01T15:41:54;10.48;;;4.40;;
36575;SDS011;45700;50.930;5.168;2023-03-01T15:45:56;8.40;;;3.92;;
36575;SDS011;45700;50.930;5.168;2023-03-01T15:49:58;9.93;;;4.90;;
36575;SDS011;45700;50.930;5.168;2023-03-01T15:54:02;9.98;;;4.50;;
36575;SDS011;45700;50.930;5.168;2023-03-01T15:58:05;9.20;;;4.40;;
36575;SDS011;45700;50.930;5.168;2023-03-01T16:02:08;7.75;;;4.25;;
36575;SDS011;45700;50.930;5.168;2023-03-01T16:06:10;9.35;;;4.18;;
36575;SDS011;45700;50.930;5.168;2023-03-01T16:10:11;8.27;;;4.22;;
36575;SDS011;45700;50.930;5.168;2023-03-01T16:14:13;8.27;;;3.95;;
36575;SDS011;45700;50.930;5.168;2023-03-01T16:18:14;13.27;;;4.90;;
36575;SDS011;45700;50.930;5.168;2023-03-01T16:22:15;12.45;;;4.78;;
36575;SDS011;45700;50.930;5.168;2023-03-01T16:26:18;11.68;;;4.60;;
36575;SDS011;45700;50.930;5.168;2023-03-01T16:30:20;9.95;;;3.88;;
36575;SDS011;45700;50.930;5.168;2023-03-01T16:34:21;9.75;;;4.20;;
36575;SDS011;45700;50.930;5.168;2023-03-01T16:38:23;10.18;;;4.47;;
36575;SDS011;45700;50.930;5.168;2023-03-01T16:42:24;8.80;;;4.30;;
36575;SDS011;45700;50.930;5.168;2023-03-01T16:46:26;10.70;;;3.80;;
36575;SDS011;45700;50.930;5.168;2023-03-01T16:50:30;10.55;;;4.38;;
36575;SDS011;45700;50.930;5.168;2023-03-01T16:54:32;11.23;;;4.25;;
36575;SDS011;45700;50.930;5.168;2023-03-01T16:58:33;9.77;;;4.60;;
36575;SDS011;45700;50.930;5.168;2023-03-01T17:02:34;9.10;;;4.13;;
36575;SDS011;45700;50.930;5.168;2023-03-01T17:06:35;10.73;;;5.03;;
36575;SDS011;45700;50.930;5.168;2023-03-01T17:10:36;8.60;;;4.38;;
36575;SDS011;45700;50.930;5.168;2023-03-01T17:14:37;10.18;;;5.00;;
36575;SDS011;45700;50.930;5.168;2023-03-01T17:18:41;12.27;;;4.35;;
36575;SDS011;45700;50.930;5.168;2023-03-01T17:22:42;6.47;;;3.45;;
36575;SDS011;45700;50.930;5.168;2023-03-01T17:26:43;15.00;;;4.38;;
36575;SDS011;45700;50.930;5.168;2023-03-01T17:30:44;11.30;;;4.55;;
36575;SDS011;45700;50.930;5.168;2023-03-01T17:34:46;9.30;;;4.30;;
36575;SDS011;45700;50.930;5.168;2023-03-01T17:38:48;10.70;;;4.60;;
36575;SDS011;45700;50.930;5.168;2023-03-01T17:42:49;8.80;;;4.55;;
36575;SDS011;45700;50.930;5.168;2023-03-01T17:46:50;12.20;;;4.85;;
36575;SDS011;45700;50.930;5.168;2023-03-01T17:50:51;9.82;;;4.45;;
36575;SDS011;45700;50.930;5.168;2023-03-01T17:54:52;8.20;;;4.40;;
36575;SDS011;45700;50.930;5.168;2023-03-01T17:58:53;11.20;;;5.43;;
36575;SDS011;45700;50.930;5.168;2023-03-01T18:02:54;10.75;;;5.10;;
36575;SDS011;45700;50.930;5.168;2023-03-01T18:06:55;11.50;;;4.18;;
36575;SDS011;45700;50.930;5.168;2023-03-01T18:10:57;9.77;;;4.55;;
36575;SDS011;45700;50.930;5.168;2023-03-01T18:14:58;10.32;;;5.18;;
36575;SDS011;45700;50.930;5.168;2023-03-01T18:19:00;11.05;;;5.00;;
36575;SDS011;45700;50.930;5.168;2023-03-01T18:23:01;10.82;;;4.88;;
36575;SDS011;45700;50.930;5.168;2023-03-01T18:27:03;12.25;;;4.95;;
36575;SDS011;45700;50.930;5.168;2023-03-01T18:31:05;13.93;;;5.97;;
36575;SDS011;45700;50.930;5.168;2023-03-01T18:35:10;18.67;;;4.88;;
36575;SDS011;45700;50.930;5.168;2023-03-01T18:39:11;15.70;;;5.28;;
36575;SDS011;45700;50.930;5.168;2023-03-01T18:43:14;12.40;;;4.70;;
36575;SDS011;45700;50.930;5.168;2023-03-01T18:47:15;13.32;;;4.85;;
36575;SDS011;45700;50.930;5.168;2023-03-01T18:51:17;14.07;;;5.25;;
36575;SDS011;45700;50.930;5.168;2023-03-01T18:55:18;10.80;;;5.20;;
36575;SDS011;45700;50.930;5.168;2023-03-01T18:59:19;14.95;;;5.53;;
36575;SDS011;45700;50.930;5.168;2023-03-01T19:03:20;11.50;;;5.28;;
36575;SDS011;45700;50.930;5.168;2023-03-01T19:07:21;20.67;;;6.90;;
36575;SDS011;45700;50.930;5.168;2023-03-01T19:11:22;13.18;;;5.60;;
36575;SDS011;45700;50.930;5.168;2023-03-01T19:15:25;21.45;;;5.88;;
36575;SDS011;45700;50.930;5.168;2023-03-01T19:19:26;13.55;;;6.07;;
36575;SDS011;45700;50.930;5.168;2023-03-01T19:23:28;15.05;;;6.03;;
36575;SDS011;45700;50.930;5.168;2023-03-01T19:27:29;12.60;;;5.45;;
36575;SDS011;45700;50.930;5.168;2023-03-01T19:31:30;18.08;;;6.57;;
36575;SDS011;45700;50.930;5.168;2023-03-01T19:35:32;15.52;;;6.28;;
36575;SDS011;45700;50.930;5.168;2023-03-01T19:39:34;18.60;;;5.53;;
36575;SDS011;45700;50.930;5.168;2023-03-01T19:43:35;21.02;;;6.10;;
36575;SDS011;45700;50.930;5.168;2023-03-01T19:47:36;18.00;;;6.60;;
36575;SDS011;45700;50.930;5.168;2023-03-01T19:51:37;22.05;;;6.60;;
36575;SDS011;45700;50.930;5.168;2023-03-01T19:55:38;16.33;;;6.18;;
36575;SDS011;45700;50.930;5.168;2023-03-01T19:59:40;23.88;;;7.70;;
36575;SDS011;45700;50.930;5.168;2023-03-01T20:03:41;24.10;;;8.52;;
36575;SDS011;45700;50.930;5.168;2023-03-01T20:07:42;21.50;;;7.18;;
36575;SDS011;45700;50.930;5.168;2023-03-01T20:11:43;20.00;;;6.72;;
36575;SDS011;45700;50.930;5.168;2023-03-01T20:15:44;16.05;;;6.00;;
36575;SDS011;45700;50.930;5.168;2023-03-01T20:19:45;17.77;;;7.20;;
36575;SDS011;45700;50.930;5.168;2023-03-01T20:23:46;17.45;;;6.75;;
36575;SDS011;45700;50.930;5.168;2023-03-01T20:27:47;19.58;;;7.53;;
36575;SDS011;45700;50.930;5.168;2023-03-01T20:31:50;19.58;;;6.93;;
36575;SDS011;45700;50.930;5.168;2023-03-01T20:35:51;17.02;;;6.75;;
36575;SDS011;45700;50.930;5.168;2023-03-01T20:39:53;20.65;;;6.28;;
36575;SDS011;45700;50.930;5.168;2023-03-01T20:43:54;15.88;;;5.15;;
36575;SDS011;45700;50.930;5.168;2023-03-01T20:47:57;17.90;;;6.85;;
36575;SDS011;45700;50.930;5.168;2023-03-01T20:51:58;15.25;;;6.65;;
36575;SDS011;45700;50.930;5.168;2023-03-01T20:56:02;12.50;;;5.57;;
36575;SDS011;45700;50.930;5.168;2023-03-01T21:00:04;11.23;;;5.70;;
36575;SDS011;45700;50.930;5.168;2023-03-01T21:04:05;15.15;;;5.75;;
36575;SDS011;45700;50.930;5.168;2023-03-01T21:08:08;15.57;;;5.72;;
36575;SDS011;45700;50.930;5.168;2023-03-01T21:12:12;18.48;;;6.03;;
36575;SDS011;45700;50.930;5.168;2023-03-01T21:16:13;14.15;;;5.60;;
36575;SDS011;45700;50.930;5.168;2023-03-01T21:20:16;15.02;;;5.63;;
36575;SDS011;45700;50.930;5.168;2023-03-01T21:24:17;13.98;;;5.28;;
36575;SDS011;45700;50.930;5.168;2023-03-01T21:28:18;15.15;;;5.90;;
36575;SDS011;45700;50.930;5.168;2023-03-01T21:32:19;12.23;;;5.55;;
36575;SDS011;45700;50.930;5.168;2023-03-01T21:36:20;14.60;;;6.15;;
36575;SDS011;45700;50.930;5.168;2023-03-01T21:40:22;13.68;;;6.38;;
36575;SDS011;45700;50.930;5.168;2023-03-01T21:44:23;10.77;;;5.72;;
36575;SDS011;45700;50.930;5.168;2023-03-01T21:48:25;12.55;;;5.47;;
36575;SDS011;45700;50.930;5.168;2023-03-01T21:52:26;14.30;;;5.47;;
36575;SDS011;45700;50.930;5.168;2023-03-01T21:56:28;13.85;;;5.55;;
36575;SDS011;45700;50.930;5.168;2023-03-01T22:00:30;11.57;;;5.05;;
36575;SDS011;45700;50.930;5.168;2023-03-01T22:04:31;15.40;;;5.32;;
36575;SDS011;45700;50.930;5.168;2023-03-01T22:08:32;14.88;;;6.15;;
36575;SDS011;45700;50.930;5.168;2023-03-01T22:12:33;14.27;;;5.68;;
36575;SDS011;45700;50.930;5.168;2023-03-01T22:16:35;19.63;;;6.15;;
36575;SDS011;45700;50.930;5.168;2023-03-01T22:20:36;12.52;;;5.28;;
36575;SDS011;45700;50.930;5.168;2023-03-01T22:24:38;14.80;;;5.85;;
36575;SDS011;45700;50.930;5.168;2023-03-01T22:28:39;11.95;;;5.15;;
36575;SDS011;45700;50.930;5.168;2023-03-01T22:32:40;14.05;;;5.50;;
36575;SDS011;45700;50.930;5.168;2023-03-01T22:36:42;16.48;;;5.45;;
36575;SDS011;45700;50.930;5.168;2023-03-01T22:40:43;11.70;;;5.15;;
36575;SDS011;45700;50.930;5.168;2023-03-01T22:44:44;14.25;;;5.15;;
36575;SDS011;45700;50.930;5.168;2023-03-01T22:48:45;18.80;;;5.63;;
36575;SDS011;45700;50.930;5.168;2023-03-01T22:52:46;11.02;;;5.13;;
36575;SDS011;45700;50.930;5.168;2023-03-01T22:56:48;10.30;;;5.28;;
36575;SDS011;45700;50.930;5.168;2023-03-01T23:00:49;13.85;;;5.38;;
36575;SDS011;45700;50.930;5.168;2023-03-01T23:04:50;11.88;;;4.65;;
36575;SDS011;45700;50.930;5.168;2023-03-01T23:08:54;19.33;;;6.47;;
36575;SDS011;45700;50.930;5.168;2023-03-01T23:12:55;14.65;;;5.32;;
36575;SDS011;45700;50.930;5.168;2023-03-01T23:16:56;13.55;;;4.50;;
36575;SDS011;45700;50.930;5.168;2023-03-01T23:20:59;13.65;;;5.53;;
36575;SDS011;45700;50.930;5.168;2023-03-01T23:25:00;11.02;;;4.60;;
36575;SDS011;45700;50.930;5.168;2023-03-01T23:29:01;12.85;;;4.60;;
36575;SDS011;45700;50.930;5.168;2023-03-01T23:33:02;13.52;;;4.97;;
36575;SDS011;45700;50.930;5.168;2023-03-01T23:37:03;15.15;;;5.50;;
36575;SDS011;45700;50.930;5.168;2023-03-01T23:41:08;19.83;;;5.72;;
36575;SDS011;45700;50.930;5.168;2023-03-01T23:45:09;17.67;;;6.07;;
36575;SDS011;45700;50.930;5.168;2023-03-01T23:49:10;17.00;;;5.45;;
36575;SDS011;45700;50.930;5.168;2023-03-01T23:53:14;18.63;;;5.07;;
36575;SDS011;45700;50.930;5.168;2023-03-01T23:57:16;14.18;;;5.03;;
